createdAt,value
2018-01-19T00:00:06.096Z,2.70
2018-01-19T00:01:05.710Z,2.70
2018-01-19T00:02:05.207Z,2.70
2018-01-19T00:03:08.320Z,2.70
2018-01-19T00:04:05.799Z,2.70
2018-01-19T00:05:05.361Z,2.70
2018-01-19T00:06:06.271Z,2.70
2018-01-19T00:07:05.706Z,2.70
2018-01-19T00:08:07.757Z,2.60
2018-01-19T00:09:05.488Z,2.60
2018-01-19T00:10:05.911Z,2.60
2018-01-19T00:11:05.556Z,2.60
2018-01-19T00:12:11.126Z,2.60
2018-01-19T00:13:05.593Z,2.60
2018-01-19T00:14:05.182Z,2.60
2018-01-19T00:15:05.730Z,2.50
2018-01-19T00:16:05.370Z,2.60
2018-01-19T00:17:05.962Z,2.60
2018-01-19T00:18:10.508Z,2.50
2018-01-19T00:19:05.733Z,2.50
2018-01-19T00:20:10.363Z,2.50
2018-01-19T00:21:10.880Z,2.50
2018-01-19T00:22:05.236Z,2.50
2018-01-19T00:23:06.147Z,2.50
2018-01-19T00:24:05.649Z,2.50
2018-01-19T00:25:10.320Z,2.50
2018-01-19T00:26:08.314Z,2.40
2018-01-19T00:27:08.199Z,2.40
2018-01-19T00:28:07.764Z,2.40
2018-01-19T00:29:08.588Z,2.30
2018-01-19T00:30:08.443Z,2.30
2018-01-19T00:31:06.069Z,2.30
2018-01-19T00:32:13.232Z,2.20
2018-01-19T00:33:05.582Z,2.20
2018-01-19T00:34:07.934Z,2.20
2018-01-19T00:35:05.379Z,2.20
2018-01-19T00:36:05.959Z,2.20
2018-01-19T00:37:10.614Z,2.20
2018-01-19T00:38:06.078Z,2.20
2018-01-19T00:39:05.890Z,2.20
2018-01-19T00:40:05.406Z,2.20
2018-01-19T00:41:06.172Z,2.10
2018-01-19T00:42:05.663Z,2.20
2018-01-19T00:43:08.068Z,2.10
2018-01-19T00:44:07.894Z,2.10
2018-01-19T00:45:05.928Z,2.10
2018-01-19T00:46:08.040Z,2.10
2018-01-19T00:47:05.618Z,2.10
2018-01-19T00:48:12.888Z,2.10
2018-01-19T00:49:05.281Z,2.10
2018-01-19T00:50:08.538Z,2.10
2018-01-19T00:51:06.187Z,2.10
2018-01-19T00:52:05.678Z,2.10
2018-01-19T00:53:10.354Z,2.10
2018-01-19T00:54:05.711Z,2.00
2018-01-19T00:55:05.348Z,2.10
2018-01-19T00:56:05.762Z,2.10
2018-01-19T00:57:05.249Z,2.10
2018-01-19T00:58:05.986Z,2.00
2018-01-19T00:59:08.005Z,2.00
2018-01-19T01:00:05.236Z,2.00
2018-01-19T01:01:10.942Z,2.00
2018-01-19T01:02:08.381Z,2.00
2018-01-19T01:03:05.919Z,2.00
2018-01-19T01:04:05.648Z,2.00
2018-01-19T01:05:05.175Z,2.00
2018-01-19T01:06:13.512Z,1.90
2018-01-19T01:07:05.858Z,1.90
2018-01-19T01:08:06.023Z,1.90
2018-01-19T01:09:05.540Z,1.90
2018-01-19T01:10:10.193Z,1.90
2018-01-19T01:11:08.199Z,1.90
2018-01-19T01:12:07.969Z,1.80
2018-01-19T01:13:05.360Z,1.90
2018-01-19T01:14:06.014Z,1.80
2018-01-19T01:15:05.699Z,1.80
2018-01-19T01:16:07.759Z,1.80
2018-01-19T01:17:08.606Z,1.80
2018-01-19T01:18:05.625Z,1.80
2018-01-19T01:19:10.159Z,1.80
2018-01-19T01:20:08.054Z,1.80
2018-01-19T01:21:10.354Z,1.80
2018-01-19T01:22:08.341Z,1.90
2018-01-19T01:23:05.833Z,1.80
2018-01-19T01:24:05.668Z,1.90
2018-01-19T01:25:08.459Z,1.90
2018-01-19T01:26:08.237Z,1.90
2018-01-19T01:27:08.303Z,1.90
2018-01-19T01:28:05.259Z,1.90
2018-01-19T01:29:05.853Z,1.90
2018-01-19T01:30:05.461Z,1.90
2018-01-19T01:31:08.496Z,1.90
2018-01-19T01:32:08.521Z,1.90
2018-01-19T01:33:08.550Z,1.90
2018-01-19T01:34:06.010Z,1.90
2018-01-19T01:35:05.443Z,1.90
2018-01-19T01:36:05.126Z,1.90
2018-01-19T01:37:10.814Z,1.90
2018-01-19T01:38:05.284Z,1.90
2018-01-19T01:39:05.919Z,1.90
2018-01-19T01:40:05.729Z,1.90
2018-01-19T01:41:07.823Z,1.90
2018-01-19T01:42:06.048Z,1.90
2018-01-19T01:43:05.719Z,1.90
2018-01-19T01:44:05.244Z,1.90
2018-01-19T01:45:10.986Z,1.90
2018-01-19T01:46:05.406Z,1.90
2018-01-19T01:47:06.097Z,1.90
2018-01-19T01:48:05.516Z,1.90
2018-01-19T01:49:05.975Z,1.90
2018-01-19T01:50:05.731Z,1.90
2018-01-19T01:51:05.314Z,1.90
2018-01-19T01:52:05.868Z,1.90
2018-01-19T01:53:08.246Z,1.90
2018-01-19T01:54:05.548Z,1.90
2018-01-19T01:55:06.163Z,1.80
2018-01-19T01:56:05.669Z,1.80
2018-01-19T01:57:12.825Z,1.80
2018-01-19T01:58:07.806Z,1.80
2018-01-19T01:59:06.019Z,1.80
2018-01-19T02:00:05.864Z,1.80
2018-01-19T02:01:05.415Z,1.80
2018-01-19T02:02:05.977Z,1.80
2018-01-19T02:03:05.441Z,1.90
2018-01-19T02:04:05.176Z,1.80
2018-01-19T02:05:08.381Z,1.80
2018-01-19T02:06:05.404Z,1.80
2018-01-19T02:07:05.867Z,1.80
2018-01-19T02:08:05.621Z,1.80
2018-01-19T02:09:06.116Z,1.80
2018-01-19T02:10:08.470Z,1.90
2018-01-19T02:11:10.817Z,1.90
2018-01-19T02:12:07.711Z,1.90
2018-01-19T02:13:09.382Z,1.90
2018-01-19T02:14:08.430Z,1.90
2018-01-19T02:15:11.292Z,1.90
2018-01-19T02:16:08.359Z,1.90
2018-01-19T02:17:05.676Z,1.90
2018-01-19T02:18:05.197Z,1.90
2018-01-19T02:19:05.649Z,1.90
2018-01-19T02:20:05.253Z,1.90
2018-01-19T02:21:08.609Z,1.90
2018-01-19T02:22:11.008Z,1.90
2018-01-19T02:23:10.413Z,1.90
2018-01-19T02:24:05.813Z,1.90
2018-01-19T02:25:05.511Z,1.90
2018-01-19T02:26:08.493Z,1.90
2018-01-19T02:27:05.807Z,1.90
2018-01-19T02:28:12.878Z,1.90
2018-01-19T02:29:05.288Z,1.90
2018-01-19T02:30:08.689Z,1.90
2018-01-19T02:31:06.090Z,1.80
2018-01-19T02:32:05.697Z,1.90
2018-01-19T02:33:05.217Z,1.90
2018-01-19T02:34:08.201Z,1.90
2018-01-19T02:35:05.586Z,1.90
2018-01-19T02:36:05.127Z,1.90
2018-01-19T02:37:08.286Z,1.90
2018-01-19T02:38:05.842Z,1.90
2018-01-19T02:39:05.456Z,2.00
2018-01-19T02:40:07.965Z,1.90
2018-01-19T02:41:07.864Z,1.90
2018-01-19T02:42:10.224Z,1.90
2018-01-19T02:43:05.623Z,1.90
2018-01-19T02:44:11.135Z,1.90
2018-01-19T02:45:05.547Z,1.90
2018-01-19T02:46:06.051Z,1.90
2018-01-19T02:47:10.741Z,1.90
2018-01-19T02:48:05.895Z,1.90
2018-01-19T02:49:08.083Z,1.90
2018-01-19T02:50:05.564Z,1.90
2018-01-19T02:51:05.380Z,1.90
2018-01-19T02:52:05.858Z,1.90
2018-01-19T02:53:07.952Z,1.90
2018-01-19T02:54:05.872Z,2.00
2018-01-19T02:55:07.925Z,1.90
2018-01-19T02:56:05.332Z,1.90
2018-01-19T02:57:08.007Z,1.90
2018-01-19T02:58:05.443Z,1.90
2018-01-19T02:59:10.273Z,1.90
2018-01-19T03:00:07.824Z,2.00
2018-01-19T03:01:05.217Z,1.90
2018-01-19T03:02:05.728Z,1.90
2018-01-19T03:03:07.766Z,1.90
2018-01-19T03:04:05.127Z,1.90
2018-01-19T03:05:05.934Z,1.90
2018-01-19T03:06:05.594Z,1.90
2018-01-19T03:07:07.720Z,2.00
2018-01-19T03:08:05.127Z,1.90
2018-01-19T03:09:05.557Z,1.90
2018-01-19T03:10:07.204Z,2.00
2018-01-19T03:11:08.136Z,1.90
2018-01-19T03:12:05.453Z,1.90
2018-01-19T03:13:06.047Z,1.90
2018-01-19T03:14:08.135Z,1.90
2018-01-19T03:15:05.374Z,1.90
2018-01-19T03:16:08.100Z,1.80
2018-01-19T03:17:05.423Z,1.90
2018-01-19T03:18:06.173Z,1.90
2018-01-19T03:19:05.616Z,1.90
2018-01-19T03:20:07.646Z,1.80
2018-01-19T03:21:06.042Z,1.80
2018-01-19T03:22:08.196Z,1.80
2018-01-19T03:23:05.763Z,1.80
2018-01-19T03:24:07.841Z,1.80
2018-01-19T03:25:07.755Z,1.70
2018-01-19T03:26:05.108Z,1.80
2018-01-19T03:27:08.118Z,1.70
2018-01-19T03:28:05.321Z,1.70
2018-01-19T03:29:05.813Z,1.70
2018-01-19T03:30:05.520Z,1.70
2018-01-19T03:31:07.739Z,1.70
2018-01-19T03:32:05.942Z,1.70
2018-01-19T03:33:05.420Z,1.70
2018-01-19T03:34:08.614Z,1.70
2018-01-19T03:35:10.880Z,1.70
2018-01-19T03:36:05.259Z,1.70
2018-01-19T03:37:05.965Z,1.60
2018-01-19T03:38:05.471Z,1.60
2018-01-19T03:39:05.935Z,1.60
2018-01-19T03:40:08.289Z,1.60
2018-01-19T03:41:05.791Z,1.60
2018-01-19T03:42:07.842Z,1.60
2018-01-19T03:43:05.920Z,1.60
2018-01-19T03:44:07.928Z,1.60
2018-01-19T03:45:07.768Z,1.60
2018-01-19T03:46:05.331Z,1.60
2018-01-19T03:47:08.404Z,1.60
2018-01-19T03:48:05.681Z,1.60
2018-01-19T03:49:05.153Z,1.60
2018-01-19T03:50:05.761Z,1.60
2018-01-19T03:51:05.243Z,1.50
2018-01-19T03:52:05.967Z,1.60
2018-01-19T03:53:05.498Z,1.60
2018-01-19T03:54:08.712Z,1.60
2018-01-19T03:55:05.189Z,1.50
2018-01-19T03:56:05.700Z,1.50
2018-01-19T03:57:08.098Z,1.50
2018-01-19T03:58:07.973Z,1.50
2018-01-19T03:59:10.594Z,1.50
2018-01-19T04:00:06.099Z,1.50
2018-01-19T04:01:08.130Z,1.50
2018-01-19T04:02:05.684Z,1.50
2018-01-19T04:03:05.134Z,1.50
2018-01-19T04:04:08.223Z,1.50
2018-01-19T04:05:05.603Z,1.40
2018-01-19T04:06:05.474Z,1.40
2018-01-19T04:07:08.633Z,1.40
2018-01-19T04:08:06.069Z,1.40
2018-01-19T04:09:05.946Z,1.40
2018-01-19T04:10:08.220Z,1.40
2018-01-19T04:11:05.657Z,1.40
2018-01-19T04:12:07.724Z,1.40
2018-01-19T04:13:05.132Z,1.40
2018-01-19T04:14:05.832Z,1.40
2018-01-19T04:15:05.664Z,1.40
2018-01-19T04:16:07.804Z,1.40
2018-01-19T04:17:07.866Z,1.40
2018-01-19T04:18:10.301Z,1.40
2018-01-19T04:19:05.721Z,1.30
2018-01-19T04:20:05.181Z,1.40
2018-01-19T04:21:05.794Z,1.40
2018-01-19T04:22:05.396Z,1.40
2018-01-19T04:23:06.146Z,1.40
2018-01-19T04:24:05.579Z,1.30
2018-01-19T04:25:06.185Z,1.30
2018-01-19T04:26:05.733Z,1.30
2018-01-19T04:27:05.188Z,1.40
2018-01-19T04:28:05.856Z,1.40
2018-01-19T04:29:05.288Z,1.40
2018-01-19T04:30:08.412Z,1.40
2018-01-19T04:31:08.290Z,1.40
2018-01-19T04:32:05.557Z,1.40
2018-01-19T04:33:10.240Z,1.40
2018-01-19T04:34:08.145Z,1.50
2018-01-19T04:35:05.537Z,1.50
2018-01-19T04:36:11.870Z,1.50
2018-01-19T04:37:07.719Z,1.40
2018-01-19T04:38:08.658Z,1.50
2018-01-19T04:39:06.014Z,1.50
2018-01-19T04:40:05.515Z,1.50
2018-01-19T04:41:05.366Z,1.50
2018-01-19T04:42:05.886Z,1.50
2018-01-19T04:43:10.381Z,1.50
2018-01-19T04:44:05.777Z,1.50
2018-01-19T04:45:05.357Z,1.50
2018-01-19T04:46:08.422Z,1.50
2018-01-19T04:47:10.789Z,1.50
2018-01-19T04:48:07.812Z,1.50
2018-01-19T04:49:07.720Z,1.50
2018-01-19T04:50:06.236Z,1.50
2018-01-19T04:51:05.711Z,1.50
2018-01-19T04:52:05.437Z,1.50
2018-01-19T04:53:08.435Z,1.50
2018-01-19T04:54:05.753Z,1.50
2018-01-19T04:55:05.266Z,1.50
2018-01-19T04:56:05.932Z,1.50
2018-01-19T04:57:05.325Z,1.50
2018-01-19T04:58:08.469Z,1.50
2018-01-19T04:59:08.346Z,1.50
2018-01-19T05:00:08.197Z,1.50
2018-01-19T05:01:13.200Z,1.50
2018-01-19T05:02:08.222Z,1.50
2018-01-19T05:03:05.689Z,1.50
2018-01-19T05:04:05.320Z,1.50
2018-01-19T05:05:10.867Z,1.50
2018-01-19T05:06:05.204Z,1.50
2018-01-19T05:07:08.376Z,1.40
2018-01-19T05:08:08.409Z,1.40
2018-01-19T05:09:08.234Z,1.40
2018-01-19T05:10:05.682Z,1.50
2018-01-19T05:11:05.473Z,1.40
2018-01-19T05:12:05.907Z,1.40
2018-01-19T05:13:05.703Z,1.40
2018-01-19T05:14:05.130Z,1.40
2018-01-19T05:15:10.853Z,1.40
2018-01-19T05:16:05.197Z,1.40
2018-01-19T05:17:08.153Z,1.40
2018-01-19T05:18:08.118Z,1.40
2018-01-19T05:19:05.388Z,1.40
2018-01-19T05:20:05.879Z,1.30
2018-01-19T05:21:05.668Z,1.40
2018-01-19T05:22:05.559Z,1.30
2018-01-19T05:23:08.507Z,1.30
2018-01-19T05:24:08.197Z,1.30
2018-01-19T05:25:10.861Z,1.30
2018-01-19T05:26:07.716Z,1.30
2018-01-19T05:27:06.181Z,1.20
2018-01-19T05:28:13.349Z,1.20
2018-01-19T05:29:08.246Z,1.20
2018-01-19T05:30:05.669Z,1.20
2018-01-19T05:31:05.743Z,1.20
2018-01-19T05:32:07.801Z,1.20
2018-01-19T05:33:05.188Z,1.20
2018-01-19T05:34:10.847Z,1.10
2018-01-19T05:35:05.249Z,1.20
2018-01-19T05:36:08.372Z,1.10
2018-01-19T05:37:10.204Z,1.20
2018-01-19T05:38:05.639Z,1.20
2018-01-19T05:39:07.760Z,1.20
2018-01-19T05:40:05.389Z,1.20
2018-01-19T05:41:05.760Z,1.20
2018-01-19T05:42:07.838Z,1.20
2018-01-19T05:43:07.762Z,1.20
2018-01-19T05:44:05.151Z,1.20
2018-01-19T05:45:11.033Z,1.20
2018-01-19T05:46:08.493Z,1.20
2018-01-19T05:47:08.425Z,1.20
2018-01-19T05:48:06.209Z,1.20
2018-01-19T05:49:06.124Z,1.20
2018-01-19T05:50:05.905Z,1.20
2018-01-19T05:51:07.954Z,1.20
2018-01-19T05:52:05.388Z,1.20
2018-01-19T05:53:05.115Z,1.20
2018-01-19T05:54:05.698Z,1.20
2018-01-19T05:55:07.747Z,1.20
2018-01-19T05:56:07.755Z,1.20
2018-01-19T05:57:05.386Z,1.20
2018-01-19T05:58:05.865Z,1.10
2018-01-19T05:59:07.948Z,1.10
2018-01-19T06:00:05.804Z,1.10
2018-01-19T06:01:05.936Z,1.20
2018-01-19T06:02:05.462Z,1.10
2018-01-19T06:03:05.231Z,1.20
2018-01-19T06:04:05.732Z,1.10
2018-01-19T06:05:05.278Z,1.10
2018-01-19T06:06:05.913Z,1.10
2018-01-19T06:07:05.675Z,1.10
2018-01-19T06:08:05.206Z,1.10
2018-01-19T06:09:10.667Z,1.10
2018-01-19T06:10:08.643Z,1.10
2018-01-19T06:11:08.506Z,1.10
2018-01-19T06:12:05.889Z,1.10
2018-01-19T06:13:08.172Z,1.10
2018-01-19T06:14:08.083Z,1.10
2018-01-19T06:15:05.509Z,1.10
2018-01-19T06:16:06.022Z,1.10
2018-01-19T06:17:08.286Z,1.00
2018-01-19T06:18:10.677Z,1.00
2018-01-19T06:19:08.339Z,1.10
2018-01-19T06:20:05.687Z,1.10
2018-01-19T06:21:05.101Z,1.10
2018-01-19T06:22:10.606Z,1.10
2018-01-19T06:23:06.211Z,1.10
2018-01-19T06:24:08.374Z,1.10
2018-01-19T06:25:05.881Z,1.10
2018-01-19T06:26:05.567Z,1.10
2018-01-19T06:27:06.229Z,1.10
2018-01-19T06:28:10.753Z,1.10
2018-01-19T06:29:06.131Z,1.10
2018-01-19T06:30:05.787Z,1.20
2018-01-19T06:31:05.347Z,1.10
2018-01-19T06:32:06.157Z,1.20
2018-01-19T06:33:05.587Z,1.10
2018-01-19T06:34:08.620Z,1.20
2018-01-19T06:35:05.988Z,1.10
2018-01-19T06:36:05.484Z,1.20
2018-01-19T06:37:06.048Z,1.10
2018-01-19T06:38:05.698Z,1.20
2018-01-19T06:39:07.786Z,1.20
2018-01-19T06:40:07.748Z,1.20
2018-01-19T06:41:05.204Z,1.20
2018-01-19T06:42:05.760Z,1.20
2018-01-19T06:43:10.402Z,1.20
2018-01-19T06:44:08.308Z,1.20
2018-01-19T06:45:05.746Z,1.20
2018-01-19T06:46:05.223Z,1.20
2018-01-19T06:47:06.110Z,1.20
2018-01-19T06:48:06.073Z,1.20
2018-01-19T06:49:05.568Z,1.20
2018-01-19T06:50:05.477Z,1.20
2018-01-19T06:51:05.916Z,1.20
2018-01-19T06:52:05.794Z,1.20
2018-01-19T06:53:05.610Z,1.20
2018-01-19T06:54:05.251Z,1.20
2018-01-19T06:55:05.830Z,1.20
2018-01-19T06:56:05.340Z,1.20
2018-01-19T06:57:05.524Z,1.20
2018-01-19T06:58:08.749Z,1.20
2018-01-19T06:59:05.168Z,1.20
2018-01-19T07:00:05.739Z,1.20
2018-01-19T07:01:10.556Z,1.20
2018-01-19T07:02:05.888Z,1.20
2018-01-19T07:03:07.971Z,1.20
2018-01-19T07:04:05.283Z,1.20
2018-01-19T07:05:05.856Z,1.20
2018-01-19T07:06:05.315Z,1.30
2018-01-19T07:07:06.128Z,1.20
2018-01-19T07:08:05.795Z,1.20
2018-01-19T07:09:05.382Z,1.20
2018-01-19T07:10:05.964Z,1.20
2018-01-19T07:11:05.663Z,1.20
2018-01-19T07:12:05.141Z,1.30
2018-01-19T07:13:05.682Z,1.20
2018-01-19T07:14:05.401Z,1.30
2018-01-19T07:15:05.898Z,1.20
2018-01-19T07:16:05.491Z,1.20
2018-01-19T07:17:05.370Z,1.20
2018-01-19T07:18:06.238Z,1.30
2018-01-19T07:19:05.518Z,1.20
2018-01-19T07:20:08.587Z,1.30
2018-01-19T07:21:05.772Z,1.30
2018-01-19T07:22:05.354Z,1.20
2018-01-19T07:23:06.022Z,1.30
2018-01-19T07:24:05.532Z,1.30
2018-01-19T07:25:05.883Z,1.30
2018-01-19T07:26:07.954Z,1.30
2018-01-19T07:27:05.348Z,1.30
2018-01-19T07:28:08.383Z,1.30
2018-01-19T07:29:05.559Z,1.30
2018-01-19T07:30:08.588Z,1.30
2018-01-19T07:31:08.504Z,1.30
2018-01-19T07:32:05.293Z,1.30
2018-01-19T07:33:06.108Z,1.30
2018-01-19T07:34:10.958Z,1.30
2018-01-19T07:35:07.950Z,1.30
2018-01-19T07:36:05.431Z,1.30
2018-01-19T07:37:05.352Z,1.40
2018-01-19T07:38:08.533Z,1.40
2018-01-19T07:39:05.908Z,1.30
2018-01-19T07:40:10.648Z,1.40
2018-01-19T07:41:06.081Z,1.30
2018-01-19T07:42:10.764Z,1.40
2018-01-19T07:43:05.178Z,1.40
2018-01-19T07:44:10.783Z,1.40
2018-01-19T07:45:05.268Z,1.40
2018-01-19T07:46:08.360Z,1.40
2018-01-19T07:47:05.571Z,1.40
2018-01-19T07:48:08.718Z,1.40
2018-01-19T07:49:05.766Z,1.40
2018-01-19T07:50:05.228Z,1.40
2018-01-19T07:51:08.556Z,1.40
2018-01-19T07:52:05.959Z,1.40
2018-01-19T07:53:07.993Z,1.40
2018-01-19T07:54:07.882Z,1.40
2018-01-19T07:55:05.365Z,1.40
2018-01-19T07:56:05.808Z,1.40
2018-01-19T07:57:05.633Z,1.40
2018-01-19T07:58:05.156Z,1.40
2018-01-19T07:59:05.686Z,1.40
2018-01-19T08:00:10.385Z,1.40
2018-01-19T08:01:10.902Z,1.40
2018-01-19T08:02:05.225Z,1.40
2018-01-19T08:03:08.352Z,1.40
2018-01-19T08:04:05.796Z,1.40
2018-01-19T08:05:05.537Z,1.40
2018-01-19T08:06:05.423Z,1.40
2018-01-19T08:07:08.458Z,1.40
2018-01-19T08:08:08.443Z,1.40
2018-01-19T08:09:08.395Z,1.40
2018-01-19T08:10:10.857Z,1.40
2018-01-19T08:11:05.169Z,1.40
2018-01-19T08:12:08.196Z,1.40
2018-01-19T08:13:05.328Z,1.40
2018-01-19T08:14:05.509Z,1.40
2018-01-19T08:15:08.690Z,1.40
2018-01-19T08:16:05.644Z,1.40
2018-01-19T08:17:07.751Z,1.40
2018-01-19T08:18:05.139Z,1.40
2018-01-19T08:19:05.984Z,1.40
2018-01-19T08:20:05.645Z,1.40
2018-01-19T08:21:05.276Z,1.40
2018-01-19T08:22:05.270Z,1.40
2018-01-19T08:23:10.834Z,1.40
2018-01-19T08:24:05.254Z,1.40
2018-01-19T08:25:05.930Z,1.50
2018-01-19T08:26:05.719Z,1.50
2018-01-19T08:27:07.873Z,1.50
2018-01-19T08:28:05.237Z,1.40
2018-01-19T08:29:06.046Z,1.40
2018-01-19T08:30:05.480Z,1.50
2018-01-19T08:31:06.148Z,1.40
2018-01-19T08:32:05.797Z,1.50
2018-01-19T08:33:05.506Z,1.40
2018-01-19T08:34:08.744Z,1.50
2018-01-19T08:35:05.778Z,1.40
2018-01-19T08:36:05.798Z,1.40
2018-01-19T08:37:06.489Z,1.50
2018-01-19T08:38:11.004Z,1.50
2018-01-19T08:39:05.989Z,1.50
2018-01-19T08:40:05.496Z,1.50
2018-01-19T08:41:06.062Z,1.50
2018-01-19T08:42:06.054Z,1.50
2018-01-19T08:43:08.151Z,1.50
2018-01-19T08:44:08.008Z,1.50
2018-01-19T08:45:10.419Z,1.50
2018-01-19T08:46:05.601Z,1.50
2018-01-19T08:47:07.780Z,1.50
2018-01-19T08:48:05.135Z,1.50
2018-01-19T08:49:08.191Z,1.60
2018-01-19T08:50:08.109Z,1.60
2018-01-19T08:51:08.042Z,1.60
2018-01-19T08:52:05.533Z,1.60
2018-01-19T08:53:08.630Z,1.60
2018-01-19T08:54:06.046Z,1.60
2018-01-19T08:55:05.887Z,1.60
2018-01-19T08:56:05.424Z,1.60
2018-01-19T08:57:05.141Z,1.70
2018-01-19T08:58:05.755Z,1.60
2018-01-19T08:59:05.740Z,1.70
2018-01-19T09:00:05.517Z,1.70
2018-01-19T09:01:06.092Z,1.70
2018-01-19T09:02:05.776Z,1.70
2018-01-19T09:03:05.609Z,1.70
2018-01-19T09:04:08.472Z,1.70
2018-01-19T09:05:05.844Z,1.70
2018-01-19T09:06:07.881Z,1.70
2018-01-19T09:07:07.790Z,1.70
2018-01-19T09:08:05.262Z,1.70
2018-01-19T09:09:05.811Z,1.70
2018-01-19T09:10:08.616Z,1.70
2018-01-19T09:11:08.468Z,1.70
2018-01-19T09:12:06.022Z,1.70
2018-01-19T09:13:05.632Z,1.80
2018-01-19T09:14:08.036Z,1.70
2018-01-19T09:15:07.864Z,1.80
2018-01-19T09:16:07.814Z,1.80
2018-01-19T09:17:05.224Z,1.80
2018-01-19T09:18:05.505Z,1.80
2018-01-19T09:19:06.018Z,1.80
2018-01-19T09:20:05.573Z,1.80
2018-01-19T09:21:06.054Z,1.80
2018-01-19T09:22:05.852Z,1.80
2018-01-19T09:23:07.850Z,1.80
2018-01-19T09:24:08.643Z,1.80
2018-01-19T09:25:11.052Z,1.80
2018-01-19T09:26:05.421Z,1.80
2018-01-19T09:27:05.921Z,1.90
2018-01-19T09:28:08.026Z,1.90
2018-01-19T09:29:05.374Z,1.90
2018-01-19T09:30:08.458Z,1.90
2018-01-19T09:31:05.833Z,1.90
2018-01-19T09:32:07.970Z,1.90
2018-01-19T09:33:05.502Z,1.90
2018-01-19T09:34:07.652Z,2.00
2018-01-19T09:35:06.105Z,1.90
2018-01-19T09:36:05.724Z,1.90
2018-01-19T09:37:07.816Z,2.00
2018-01-19T09:38:05.257Z,2.00
2018-01-19T09:39:08.246Z,1.90
2018-01-19T09:40:05.658Z,1.90
2018-01-19T09:41:05.207Z,1.90
2018-01-19T09:42:06.020Z,2.00
2018-01-19T09:43:05.496Z,2.00
2018-01-19T09:44:08.581Z,2.00
2018-01-19T09:45:08.348Z,2.00
2018-01-19T09:46:08.287Z,2.00
2018-01-19T09:47:05.541Z,2.00
2018-01-19T09:48:08.560Z,2.00
2018-01-19T09:49:08.397Z,2.00
2018-01-19T09:50:05.913Z,2.00
2018-01-19T09:51:05.378Z,2.00
2018-01-19T09:52:07.715Z,2.00
2018-01-19T09:53:06.138Z,2.00
2018-01-19T09:54:08.127Z,2.10
2018-01-19T09:55:08.007Z,2.10
2018-01-19T09:56:06.408Z,2.10
2018-01-19T09:57:05.840Z,2.10
2018-01-19T09:58:05.645Z,2.10
2018-01-19T09:59:05.318Z,2.10
2018-01-19T10:00:10.890Z,2.10
2018-01-19T10:01:10.408Z,2.10
2018-01-19T10:02:08.351Z,2.20
2018-01-19T10:03:05.853Z,2.20
2018-01-19T10:04:05.472Z,2.20
2018-01-19T10:05:05.973Z,2.20
2018-01-19T10:06:08.239Z,2.20
2018-01-19T10:07:10.642Z,2.20
2018-01-19T10:08:06.063Z,2.30
2018-01-19T10:09:05.883Z,2.30
2018-01-19T10:10:08.379Z,2.30
2018-01-19T10:11:08.585Z,2.40
2018-01-19T10:12:08.677Z,2.40
2018-01-19T10:13:06.071Z,2.30
2018-01-19T10:14:05.227Z,2.40
2018-01-19T10:15:05.769Z,2.40
2018-01-19T10:16:05.269Z,2.40
2018-01-19T10:17:13.895Z,2.50
2018-01-19T10:18:05.225Z,2.40
2018-01-19T10:19:05.948Z,2.50
2018-01-19T10:20:05.520Z,2.50
2018-01-19T10:21:06.258Z,2.50
2018-01-19T10:22:05.856Z,2.50
2018-01-19T10:23:05.483Z,2.50
2018-01-19T10:24:10.457Z,2.60
2018-01-19T10:25:05.793Z,2.50
2018-01-19T10:26:05.253Z,2.50
2018-01-19T10:27:08.462Z,2.50
2018-01-19T10:28:05.979Z,2.50
2018-01-19T10:29:05.616Z,2.60
2018-01-19T10:30:05.571Z,2.60
2018-01-19T10:31:10.246Z,2.50
2018-01-19T10:32:05.824Z,2.50
2018-01-19T10:33:05.335Z,2.50
2018-01-19T10:34:10.951Z,2.50
2018-01-19T10:35:05.341Z,2.50
2018-01-19T10:36:05.897Z,2.50
2018-01-19T10:37:08.099Z,2.50
2018-01-19T10:38:05.467Z,2.40
2018-01-19T10:39:08.505Z,2.40
2018-01-19T10:40:05.827Z,2.40
2018-01-19T10:41:05.458Z,2.40
2018-01-19T10:42:06.101Z,2.40
2018-01-19T10:43:05.655Z,2.40
2018-01-19T10:44:05.218Z,2.40
2018-01-19T10:45:08.397Z,2.40
2018-01-19T10:46:05.192Z,2.40
2018-01-19T10:47:05.867Z,2.30
2018-01-19T10:48:05.437Z,2.40
2018-01-19T10:49:08.678Z,2.40
2018-01-19T10:50:08.671Z,2.40
2018-01-19T10:51:05.484Z,2.40
2018-01-19T10:52:06.032Z,2.30
2018-01-19T10:53:05.752Z,2.30
2018-01-19T10:54:05.576Z,2.30
2018-01-19T10:55:08.660Z,2.30
2018-01-19T10:56:08.274Z,2.30
2018-01-19T10:57:05.642Z,2.30
2018-01-19T10:58:05.468Z,2.30
2018-01-19T10:59:10.315Z,2.20
2018-01-19T11:00:05.738Z,2.30
2018-01-19T11:01:05.517Z,2.30
2018-01-19T11:02:05.223Z,2.30
2018-01-19T11:03:05.915Z,2.30
2018-01-19T11:04:05.676Z,2.30
2018-01-19T11:05:05.189Z,2.20
2018-01-19T11:06:05.675Z,2.30
2018-01-19T11:07:08.243Z,2.30
2018-01-19T11:08:05.615Z,2.30
2018-01-19T11:09:05.479Z,2.30
2018-01-19T11:10:08.659Z,2.30
2018-01-19T11:11:06.146Z,2.20
2018-01-19T11:12:10.709Z,2.20
2018-01-19T11:13:06.066Z,2.20
2018-01-19T11:14:08.065Z,2.30
2018-01-19T11:15:08.010Z,2.30
2018-01-19T11:16:05.496Z,2.30
2018-01-19T11:17:10.261Z,2.30
2018-01-19T11:18:05.781Z,2.30
2018-01-19T11:19:08.107Z,2.30
2018-01-19T11:20:05.689Z,2.30
2018-01-19T11:21:07.762Z,2.30
2018-01-19T11:22:07.849Z,2.30
2018-01-19T11:23:07.956Z,2.30
2018-01-19T11:24:07.956Z,2.40
2018-01-19T11:25:10.390Z,2.40
2018-01-19T11:26:10.243Z,2.40
2018-01-19T11:27:05.587Z,2.40
2018-01-19T11:28:06.075Z,2.40
2018-01-19T11:29:07.922Z,2.50
2018-01-19T11:30:07.798Z,2.50
2018-01-19T11:31:05.236Z,2.50
2018-01-19T11:32:08.437Z,2.60
2018-01-19T11:33:06.085Z,2.50
2018-01-19T11:34:08.149Z,2.60
2018-01-19T11:35:05.194Z,2.60
2018-01-19T11:36:05.765Z,2.60
2018-01-19T11:37:10.382Z,2.60
2018-01-19T11:38:05.837Z,2.60
2018-01-19T11:39:05.428Z,2.60
2018-01-19T11:40:05.982Z,2.70
2018-01-19T11:41:10.517Z,2.70
2018-01-19T11:42:10.916Z,2.60
2018-01-19T11:43:07.923Z,2.70
2018-01-19T11:44:05.367Z,2.70
2018-01-19T11:45:07.777Z,2.70
2018-01-19T11:46:07.732Z,2.70
2018-01-19T11:47:06.160Z,2.70
2018-01-19T11:48:05.860Z,2.70
2018-01-19T11:49:05.518Z,2.70
2018-01-19T11:50:08.533Z,2.70
2018-01-19T11:51:08.347Z,2.80
2018-01-19T11:52:05.671Z,2.70
2018-01-19T11:53:08.556Z,2.80
2018-01-19T11:54:05.767Z,2.80
2018-01-19T11:55:05.504Z,2.80
2018-01-19T11:56:13.611Z,2.80
2018-01-19T11:57:08.558Z,2.80
2018-01-19T11:58:08.379Z,2.80
2018-01-19T11:59:05.931Z,2.80
2018-01-19T12:00:05.357Z,2.80
2018-01-19T12:01:11.050Z,2.80
2018-01-19T12:02:05.492Z,2.80
2018-01-19T12:03:07.702Z,2.80
2018-01-19T12:04:11.889Z,2.80
2018-01-19T12:05:05.303Z,2.80
2018-01-19T12:06:05.837Z,2.80
2018-01-19T12:07:07.836Z,2.80
2018-01-19T12:08:07.692Z,2.80
2018-01-19T12:09:13.717Z,2.90
2018-01-19T12:10:08.744Z,2.90
2018-01-19T12:11:08.439Z,2.80
2018-01-19T12:12:05.781Z,2.80
2018-01-19T12:13:05.438Z,2.80
2018-01-19T12:14:10.413Z,2.80
2018-01-19T12:15:10.777Z,2.80
2018-01-19T12:16:17.819Z,2.80
2018-01-19T12:17:08.131Z,2.90
2018-01-19T12:18:05.486Z,2.90
2018-01-19T12:19:06.071Z,2.90
2018-01-19T12:20:05.586Z,2.90
2018-01-19T12:21:10.220Z,2.90
2018-01-19T12:22:05.609Z,2.90
2018-01-19T12:23:05.092Z,2.90
2018-01-19T12:24:10.659Z,2.90
2018-01-19T12:25:06.027Z,2.90
2018-01-19T12:26:10.735Z,2.90
2018-01-19T12:27:07.667Z,2.90
2018-01-19T12:28:06.073Z,2.80
2018-01-19T12:29:08.476Z,2.90
2018-01-19T12:30:05.971Z,2.90
2018-01-19T12:31:07.985Z,2.90
2018-01-19T12:32:05.531Z,2.80
2018-01-19T12:33:06.088Z,2.80
2018-01-19T12:34:05.675Z,2.80
2018-01-19T12:35:05.349Z,2.80
2018-01-19T12:36:05.966Z,2.80
2018-01-19T12:37:05.498Z,2.80
2018-01-19T12:38:06.171Z,2.80
2018-01-19T12:39:08.337Z,2.80
2018-01-19T12:40:05.815Z,2.80
2018-01-19T12:41:08.201Z,2.70
2018-01-19T12:42:05.560Z,2.80
2018-01-19T12:43:06.064Z,2.80
2018-01-19T12:44:08.152Z,2.80
2018-01-19T12:45:05.890Z,2.80
2018-01-19T12:46:08.575Z,2.80
2018-01-19T12:47:11.038Z,2.70
2018-01-19T12:48:05.423Z,2.70
2018-01-19T12:49:05.269Z,2.80
2018-01-19T12:50:05.752Z,2.80
2018-01-19T12:51:05.883Z,2.80
2018-01-19T12:52:10.543Z,2.80
2018-01-19T12:53:08.538Z,2.80
2018-01-19T12:54:05.906Z,2.80
2018-01-19T12:55:08.201Z,2.80
2018-01-19T12:56:08.072Z,2.80
2018-01-19T12:57:05.477Z,2.80
2018-01-19T12:58:10.262Z,2.80
2018-01-19T12:59:05.708Z,2.80
2018-01-19T13:00:05.412Z,2.80
2018-01-19T13:01:05.345Z,2.80
2018-01-19T13:02:08.753Z,2.80
2018-01-19T13:03:06.221Z,2.80
2018-01-19T13:04:10.856Z,2.90
2018-01-19T13:05:07.833Z,2.90
2018-01-19T13:06:05.145Z,2.90
2018-01-19T13:07:05.607Z,2.80
2018-01-19T13:08:05.416Z,2.80
2018-01-19T13:09:05.997Z,2.80
2018-01-19T13:10:05.639Z,2.80
2018-01-19T13:11:07.697Z,2.80
2018-01-19T13:12:06.133Z,2.80
2018-01-19T13:13:17.106Z,2.80
2018-01-19T13:14:07.995Z,2.80
2018-01-19T13:15:08.347Z,2.80
2018-01-19T13:16:05.318Z,2.80
2018-01-19T13:17:05.881Z,2.80
2018-01-19T13:18:05.733Z,2.90